sensor_id;sensor_type;location;lat;lon;timestamp;P1;durP1;ratioP1;P2;durP2;ratioP2
53781;SDS011;39692;53.114;7.060;2023-01-19T00:00:37;11.02;;;6.95;;
53781;SDS011;39692;53.114;7.060;2023-01-19T00:03:03;14.77;;;8.82;;
53781;SDS011;39692;53.114;7.060;2023-01-19T00:05:30;10.57;;;5.55;;
53781;SDS011;39692;53.114;7.060;2023-01-19T00:07:57;8.20;;;6.65;;
53781;SDS011;39692;53.114;7.060;2023-01-19T00:10:38;9.32;;;5.95;;
53781;SDS011;39692;53.114;7.060;2023-01-19T00:13:05;8.27;;;5.30;;
53781;SDS011;39692;53.114;7.060;2023-01-19T00:15:31;10.57;;;7.45;;
53781;SDS011;39692;53.114;7.060;2023-01-19T00:17:57;8.25;;;5.80;;
53781;SDS011;39692;53.114;7.060;2023-01-19T00:20:23;10.20;;;5.15;;
53781;SDS011;39692;53.114;7.060;2023-01-19T00:22:49;7.57;;;4.47;;
53781;SDS011;39692;53.114;7.060;2023-01-19T00:25:15;8.63;;;4.40;;
53781;SDS011;39692;53.114;7.060;2023-01-19T00:27:41;8.23;;;4.53;;
53781;SDS011;39692;53.114;7.060;2023-01-19T00:30:13;6.72;;;4.65;;
53781;SDS011;39692;53.114;7.060;2023-01-19T00:32:39;6.70;;;4.53;;
53781;SDS011;39692;53.114;7.060;2023-01-19T00:35:05;8.43;;;5.38;;
53781;SDS011;39692;53.114;7.060;2023-01-19T00:37:31;7.18;;;3.85;;
53781;SDS011;39692;53.114;7.060;2023-01-19T00:39:57;6.22;;;4.28;;
53781;SDS011;39692;53.114;7.060;2023-01-19T00:42:23;9.88;;;6.38;;
53781;SDS011;39692;53.114;7.060;2023-01-19T00:45:08;8.07;;;4.80;;
53781;SDS011;39692;53.114;7.060;2023-01-19T00:47:35;10.57;;;5.53;;
53781;SDS011;39692;53.114;7.060;2023-01-19T00:50:01;5.60;;;3.72;;
53781;SDS011;39692;53.114;7.060;2023-01-19T00:52:27;7.60;;;4.47;;
53781;SDS011;39692;53.114;7.060;2023-01-19T00:54:53;5.85;;;3.33;;
53781;SDS011;39692;53.114;7.060;2023-01-19T00:57:19;7.68;;;4.10;;
53781;SDS011;39692;53.114;7.060;2023-01-19T00:59:45;5.25;;;3.38;;
53781;SDS011;39692;53.114;7.060;2023-01-19T01:02:11;5.57;;;3.83;;
53781;SDS011;39692;53.114;7.060;2023-01-19T01:04:37;7.95;;;4.43;;
53781;SDS011;39692;53.114;7.060;2023-01-19T01:07:03;4.55;;;2.72;;
53781;SDS011;39692;53.114;7.060;2023-01-19T01:09:29;5.18;;;2.90;;
53781;SDS011;39692;53.114;7.060;2023-01-19T01:11:56;5.38;;;3.00;;
53781;SDS011;39692;53.114;7.060;2023-01-19T01:14:22;4.15;;;2.90;;
53781;SDS011;39692;53.114;7.060;2023-01-19T01:16:48;5.60;;;3.67;;
53781;SDS011;39692;53.114;7.060;2023-01-19T01:19:14;6.30;;;3.03;;
53781;SDS011;39692;53.114;7.060;2023-01-19T01:21:41;4.90;;;1.98;;
53781;SDS011;39692;53.114;7.060;2023-01-19T01:24:07;3.63;;;1.58;;
53781;SDS011;39692;53.114;7.060;2023-01-19T01:26:34;4.20;;;1.88;;
53781;SDS011;39692;53.114;7.060;2023-01-19T01:29:00;5.68;;;1.70;;
53781;SDS011;39692;53.114;7.060;2023-01-19T01:31:26;3.50;;;2.15;;
53781;SDS011;39692;53.114;7.060;2023-01-19T01:33:52;4.90;;;2.22;;
53781;SDS011;39692;53.114;7.060;2023-01-19T01:36:18;4.18;;;2.25;;
53781;SDS011;39692;53.114;7.060;2023-01-19T01:38:44;3.03;;;2.13;;
53781;SDS011;39692;53.114;7.060;2023-01-19T01:41:11;3.95;;;2.20;;
53781;SDS011;39692;53.114;7.060;2023-01-19T01:43:44;3.00;;;1.95;;
53781;SDS011;39692;53.114;7.060;2023-01-19T01:46:11;2.42;;;1.48;;
53781;SDS011;39692;53.114;7.060;2023-01-19T01:48:39;2.55;;;1.40;;
53781;SDS011;39692;53.114;7.060;2023-01-19T01:51:09;3.97;;;2.30;;
53781;SDS011;39692;53.114;7.060;2023-01-19T01:56:31;2.72;;;1.30;;
53781;SDS011;39692;53.114;7.060;2023-01-19T01:58:58;4.88;;;1.92;;
53781;SDS011;39692;53.114;7.060;2023-01-19T02:01:26;3.65;;;1.75;;
53781;SDS011;39692;53.114;7.060;2023-01-19T02:04:10;1.90;;;1.08;;
53781;SDS011;39692;53.114;7.060;2023-01-19T02:06:36;4.97;;;1.83;;
53781;SDS011;39692;53.114;7.060;2023-01-19T02:12:06;4.03;;;2.05;;
53781;SDS011;39692;53.114;7.060;2023-01-19T02:14:51;3.97;;;2.55;;
53781;SDS011;39692;53.114;7.060;2023-01-19T02:17:17;5.15;;;1.85;;
53781;SDS011;39692;53.114;7.060;2023-01-19T02:19:44;4.60;;;2.55;;
53781;SDS011;39692;53.114;7.060;2023-01-19T02:22:13;4.00;;;2.22;;
53781;SDS011;39692;53.114;7.060;2023-01-19T02:24:40;4.82;;;3.38;;
53781;SDS011;39692;53.114;7.060;2023-01-19T02:27:07;5.38;;;3.42;;
53781;SDS011;39692;53.114;7.060;2023-01-19T02:29:33;5.82;;;3.03;;
53781;SDS011;39692;53.114;7.060;2023-01-19T02:32:00;6.13;;;4.00;;
53781;SDS011;39692;53.114;7.060;2023-01-19T02:34:27;6.68;;;4.75;;
53781;SDS011;39692;53.114;7.060;2023-01-19T02:37:05;6.38;;;4.72;;
53781;SDS011;39692;53.114;7.060;2023-01-19T02:42:01;8.13;;;5.22;;
53781;SDS011;39692;53.114;7.060;2023-01-19T02:44:29;7.20;;;4.57;;
53781;SDS011;39692;53.114;7.060;2023-01-19T02:46:55;10.15;;;6.07;;
53781;SDS011;39692;53.114;7.060;2023-01-19T02:49:22;7.25;;;4.57;;
53781;SDS011;39692;53.114;7.060;2023-01-19T02:51:48;8.40;;;4.63;;
53781;SDS011;39692;53.114;7.060;2023-01-19T02:54:29;8.13;;;5.05;;
53781;SDS011;39692;53.114;7.060;2023-01-19T03:02:17;7.07;;;4.93;;
53781;SDS011;39692;53.114;7.060;2023-01-19T03:05:05;8.32;;;4.93;;
53781;SDS011;39692;53.114;7.060;2023-01-19T03:12:53;6.78;;;4.78;;
53781;SDS011;39692;53.114;7.060;2023-01-19T03:15:26;9.02;;;5.32;;
53781;SDS011;39692;53.114;7.060;2023-01-19T03:17:53;8.95;;;4.78;;
53781;SDS011;39692;53.114;7.060;2023-01-19T03:20:22;8.15;;;5.57;;
53781;SDS011;39692;53.114;7.060;2023-01-19T03:22:51;8.45;;;4.95;;
53781;SDS011;39692;53.114;7.060;2023-01-19T03:25:18;7.32;;;4.22;;
53781;SDS011;39692;53.114;7.060;2023-01-19T03:27:46;11.07;;;6.18;;
53781;SDS011;39692;53.114;7.060;2023-01-19T03:30:16;9.45;;;5.60;;
53781;SDS011;39692;53.114;7.060;2023-01-19T03:32:47;8.18;;;6.65;;
53781;SDS011;39692;53.114;7.060;2023-01-19T03:35:13;13.52;;;5.70;;
53781;SDS011;39692;53.114;7.060;2023-01-19T03:37:42;14.57;;;5.53;;
53781;SDS011;39692;53.114;7.060;2023-01-19T03:40:08;8.23;;;5.88;;
53781;SDS011;39692;53.114;7.060;2023-01-19T03:42:35;12.77;;;7.55;;
53781;SDS011;39692;53.114;7.060;2023-01-19T03:45:02;9.15;;;5.95;;
53781;SDS011;39692;53.114;7.060;2023-01-19T03:47:28;9.40;;;6.47;;
53781;SDS011;39692;53.114;7.060;2023-01-19T03:49:54;9.75;;;6.40;;
53781;SDS011;39692;53.114;7.060;2023-01-19T03:52:28;12.80;;;7.00;;
53781;SDS011;39692;53.114;7.060;2023-01-19T03:54:56;11.68;;;6.97;;
53781;SDS011;39692;53.114;7.060;2023-01-19T03:57:22;10.02;;;6.15;;
53781;SDS011;39692;53.114;7.060;2023-01-19T03:59:48;12.48;;;7.28;;
53781;SDS011;39692;53.114;7.060;2023-01-19T04:02:14;8.48;;;5.63;;
53781;SDS011;39692;53.114;7.060;2023-01-19T04:04:40;10.20;;;5.63;;
53781;SDS011;39692;53.114;7.060;2023-01-19T04:07:07;8.95;;;5.95;;
53781;SDS011;39692;53.114;7.060;2023-01-19T04:09:34;8.02;;;6.07;;
53781;SDS011;39692;53.114;7.060;2023-01-19T04:12:00;9.18;;;4.95;;
53781;SDS011;39692;53.114;7.060;2023-01-19T04:14:27;11.57;;;6.60;;
53781;SDS011;39692;53.114;7.060;2023-01-19T04:16:53;10.13;;;6.55;;
53781;SDS011;39692;53.114;7.060;2023-01-19T04:19:19;12.30;;;5.60;;
53781;SDS011;39692;53.114;7.060;2023-01-19T04:21:47;9.68;;;6.07;;
53781;SDS011;39692;53.114;7.060;2023-01-19T04:24:13;9.35;;;6.13;;
53781;SDS011;39692;53.114;7.060;2023-01-19T04:26:39;12.55;;;6.45;;
53781;SDS011;39692;53.114;7.060;2023-01-19T04:29:05;10.82;;;5.93;;
53781;SDS011;39692;53.114;7.060;2023-01-19T04:31:31;10.05;;;6.30;;
53781;SDS011;39692;53.114;7.060;2023-01-19T04:33:59;8.10;;;5.75;;
53781;SDS011;39692;53.114;7.060;2023-01-19T04:36:25;9.07;;;5.55;;
53781;SDS011;39692;53.114;7.060;2023-01-19T04:38:52;10.52;;;6.10;;
53781;SDS011;39692;53.114;7.060;2023-01-19T04:41:18;10.48;;;7.45;;
53781;SDS011;39692;53.114;7.060;2023-01-19T04:43:45;9.00;;;5.15;;
53781;SDS011;39692;53.114;7.060;2023-01-19T04:46:12;9.27;;;5.72;;
53781;SDS011;39692;53.114;7.060;2023-01-19T04:48:38;8.73;;;5.82;;
53781;SDS011;39692;53.114;7.060;2023-01-19T04:51:04;7.90;;;4.72;;
53781;SDS011;39692;53.114;7.060;2023-01-19T04:53:30;7.32;;;4.88;;
53781;SDS011;39692;53.114;7.060;2023-01-19T04:55:56;7.18;;;4.70;;
53781;SDS011;39692;53.114;7.060;2023-01-19T04:58:23;7.57;;;4.70;;
53781;SDS011;39692;53.114;7.060;2023-01-19T05:00:49;8.60;;;5.35;;
53781;SDS011;39692;53.114;7.060;2023-01-19T05:03:17;8.27;;;4.35;;
53781;SDS011;39692;53.114;7.060;2023-01-19T05:05:43;8.50;;;4.50;;
53781;SDS011;39692;53.114;7.060;2023-01-19T05:08:09;6.43;;;4.05;;
53781;SDS011;39692;53.114;7.060;2023-01-19T05:10:35;9.38;;;3.90;;
53781;SDS011;39692;53.114;7.060;2023-01-19T05:13:01;7.97;;;3.80;;
53781;SDS011;39692;53.114;7.060;2023-01-19T05:15:28;7.00;;;4.47;;
53781;SDS011;39692;53.114;7.060;2023-01-19T05:17:54;8.55;;;4.28;;
53781;SDS011;39692;53.114;7.060;2023-01-19T05:20:22;7.57;;;4.60;;
53781;SDS011;39692;53.114;7.060;2023-01-19T05:22:49;7.03;;;4.43;;
53781;SDS011;39692;53.114;7.060;2023-01-19T05:25:15;7.07;;;4.15;;
53781;SDS011;39692;53.114;7.060;2023-01-19T05:27:41;7.80;;;4.20;;
53781;SDS011;39692;53.114;7.060;2023-01-19T05:30:08;7.28;;;3.78;;
53781;SDS011;39692;53.114;7.060;2023-01-19T05:32:34;5.88;;;3.25;;
53781;SDS011;39692;53.114;7.060;2023-01-19T05:35:01;6.70;;;4.22;;
53781;SDS011;39692;53.114;7.060;2023-01-19T05:37:27;7.70;;;4.50;;
53781;SDS011;39692;53.114;7.060;2023-01-19T05:39:53;8.80;;;4.68;;
53781;SDS011;39692;53.114;7.060;2023-01-19T05:42:19;7.65;;;4.65;;
53781;SDS011;39692;53.114;7.060;2023-01-19T05:44:45;8.48;;;4.32;;
53781;SDS011;39692;53.114;7.060;2023-01-19T05:47:11;5.53;;;3.55;;
53781;SDS011;39692;53.114;7.060;2023-01-19T05:49:37;8.63;;;4.88;;
53781;SDS011;39692;53.114;7.060;2023-01-19T05:52:03;7.00;;;3.67;;
53781;SDS011;39692;53.114;7.060;2023-01-19T05:54:29;9.85;;;3.28;;
53781;SDS011;39692;53.114;7.060;2023-01-19T05:56:55;7.07;;;3.97;;
53781;SDS011;39692;53.114;7.060;2023-01-19T05:59:22;4.97;;;3.42;;
53781;SDS011;39692;53.114;7.060;2023-01-19T06:01:51;7.88;;;4.63;;
53781;SDS011;39692;53.114;7.060;2023-01-19T06:04:18;7.75;;;3.47;;
53781;SDS011;39692;53.114;7.060;2023-01-19T06:06:47;6.38;;;3.97;;
53781;SDS011;39692;53.114;7.060;2023-01-19T06:09:14;8.77;;;4.40;;
53781;SDS011;39692;53.114;7.060;2023-01-19T06:11:41;7.45;;;3.65;;
53781;SDS011;39692;53.114;7.060;2023-01-19T06:14:08;7.10;;;4.10;;
53781;SDS011;39692;53.114;7.060;2023-01-19T06:16:34;7.50;;;4.70;;
53781;SDS011;39692;53.114;7.060;2023-01-19T06:19:00;6.72;;;4.05;;
53781;SDS011;39692;53.114;7.060;2023-01-19T06:21:26;7.85;;;3.80;;
53781;SDS011;39692;53.114;7.060;2023-01-19T06:23:52;6.00;;;3.28;;
53781;SDS011;39692;53.114;7.060;2023-01-19T06:26:18;7.88;;;3.55;;
53781;SDS011;39692;53.114;7.060;2023-01-19T06:28:44;6.97;;;3.58;;
53781;SDS011;39692;53.114;7.060;2023-01-19T06:31:12;9.25;;;2.95;;
53781;SDS011;39692;53.114;7.060;2023-01-19T06:33:38;6.13;;;3.17;;
53781;SDS011;39692;53.114;7.060;2023-01-19T06:36:05;7.40;;;3.83;;
53781;SDS011;39692;53.114;7.060;2023-01-19T06:38:31;5.10;;;2.97;;
53781;SDS011;39692;53.114;7.060;2023-01-19T06:40:57;5.07;;;2.42;;
53781;SDS011;39692;53.114;7.060;2023-01-19T06:43:23;3.92;;;2.38;;
53781;SDS011;39692;53.114;7.060;2023-01-19T06:45:49;3.95;;;2.20;;
53781;SDS011;39692;53.114;7.060;2023-01-19T06:48:16;4.82;;;2.97;;
53781;SDS011;39692;53.114;7.060;2023-01-19T06:50:45;5.60;;;2.40;;
53781;SDS011;39692;53.114;7.060;2023-01-19T06:53:12;4.15;;;2.50;;
53781;SDS011;39692;53.114;7.060;2023-01-19T06:55:38;5.30;;;2.55;;
53781;SDS011;39692;53.114;7.060;2023-01-19T06:58:04;3.58;;;1.52;;
53781;SDS011;39692;53.114;7.060;2023-01-19T07:00:31;3.00;;;1.75;;
53781;SDS011;39692;53.114;7.060;2023-01-19T07:02:57;1.40;;;0.70;;
53781;SDS011;39692;53.114;7.060;2023-01-19T07:05:23;2.83;;;0.85;;
53781;SDS011;39692;53.114;7.060;2023-01-19T07:07:53;1.30;;;0.63;;
53781;SDS011;39692;53.114;7.060;2023-01-19T07:10:19;4.45;;;0.80;;
53781;SDS011;39692;53.114;7.060;2023-01-19T07:12:46;5.82;;;0.73;;
53781;SDS011;39692;53.114;7.060;2023-01-19T07:15:13;1.02;;;0.63;;
53781;SDS011;39692;53.114;7.060;2023-01-19T07:17:39;4.20;;;0.50;;
53781;SDS011;39692;53.114;7.060;2023-01-19T07:20:07;1.90;;;0.63;;
53781;SDS011;39692;53.114;7.060;2023-01-19T07:22:34;1.00;;;0.45;;
53781;SDS011;39692;53.114;7.060;2023-01-19T07:25:01;3.17;;;0.55;;
53781;SDS011;39692;53.114;7.060;2023-01-19T07:27:27;1.02;;;0.50;;
53781;SDS011;39692;53.114;7.060;2023-01-19T07:29:53;4.78;;;0.52;;
53781;SDS011;39692;53.114;7.060;2023-01-19T07:32:19;1.88;;;0.60;;
53781;SDS011;39692;53.114;7.060;2023-01-19T07:34:45;10.40;;;0.93;;
53781;SDS011;39692;53.114;7.060;2023-01-19T07:37:11;1.95;;;0.70;;
53781;SDS011;39692;53.114;7.060;2023-01-19T07:39:37;4.50;;;0.63;;
53781;SDS011;39692;53.114;7.060;2023-01-19T07:42:03;3.38;;;0.63;;
53781;SDS011;39692;53.114;7.060;2023-01-19T07:44:29;1.85;;;0.50;;
53781;SDS011;39692;53.114;7.060;2023-01-19T07:46:55;3.28;;;0.90;;
53781;SDS011;39692;53.114;7.060;2023-01-19T07:49:21;3.67;;;1.02;;
53781;SDS011;39692;53.114;7.060;2023-01-19T07:51:47;1.98;;;0.57;;
53781;SDS011;39692;53.114;7.060;2023-01-19T07:54:13;2.65;;;1.20;;
53781;SDS011;39692;53.114;7.060;2023-01-19T07:56:39;1.73;;;0.93;;
53781;SDS011;39692;53.114;7.060;2023-01-19T07:59:05;1.83;;;1.00;;
53781;SDS011;39692;53.114;7.060;2023-01-19T08:01:33;2.72;;;0.90;;
53781;SDS011;39692;53.114;7.060;2023-01-19T08:03:59;1.98;;;0.93;;
53781;SDS011;39692;53.114;7.060;2023-01-19T08:06:28;6.82;;;1.40;;
53781;SDS011;39692;53.114;7.060;2023-01-19T08:08:57;2.50;;;1.38;;
53781;SDS011;39692;53.114;7.060;2023-01-19T08:11:23;8.95;;;3.28;;
53781;SDS011;39692;53.114;7.060;2023-01-19T08:13:49;5.20;;;2.47;;
53781;SDS011;39692;53.114;7.060;2023-01-19T08:16:15;5.18;;;2.88;;
53781;SDS011;39692;53.114;7.060;2023-01-19T08:18:41;7.65;;;4.43;;
53781;SDS011;39692;53.114;7.060;2023-01-19T08:21:07;8.52;;;3.88;;
53781;SDS011;39692;53.114;7.060;2023-01-19T08:23:33;6.88;;;4.28;;
53781;SDS011;39692;53.114;7.060;2023-01-19T08:25:59;5.65;;;3.50;;
53781;SDS011;39692;53.114;7.060;2023-01-19T08:28:25;7.70;;;4.47;;
53781;SDS011;39692;53.114;7.060;2023-01-19T08:30:51;7.05;;;4.00;;
53781;SDS011;39692;53.114;7.060;2023-01-19T08:33:22;6.65;;;4.03;;
53781;SDS011;39692;53.114;7.060;2023-01-19T08:35:50;8.25;;;2.65;;
53781;SDS011;39692;53.114;7.060;2023-01-19T08:38:16;9.27;;;2.90;;
53781;SDS011;39692;53.114;7.060;2023-01-19T08:40:43;6.88;;;0.93;;
53781;SDS011;39692;53.114;7.060;2023-01-19T08:43:10;5.57;;;1.25;;
53781;SDS011;39692;53.114;7.060;2023-01-19T08:45:38;6.85;;;0.95;;
53781;SDS011;39692;53.114;7.060;2023-01-19T08:48:10;2.28;;;0.63;;
53781;SDS011;39692;53.114;7.060;2023-01-19T08:50:37;2.72;;;0.63;;
53781;SDS011;39692;53.114;7.060;2023-01-19T08:53:04;9.48;;;0.98;;
53781;SDS011;39692;53.114;7.060;2023-01-19T08:55:32;6.75;;;1.00;;
53781;SDS011;39692;53.114;7.060;2023-01-19T08:57:58;7.68;;;1.15;;
53781;SDS011;39692;53.114;7.060;2023-01-19T09:00:25;4.07;;;1.38;;
53781;SDS011;39692;53.114;7.060;2023-01-19T09:02:51;11.05;;;1.33;;
53781;SDS011;39692;53.114;7.060;2023-01-19T09:05:18;7.50;;;0.80;;
53781;SDS011;39692;53.114;7.060;2023-01-19T09:07:44;5.13;;;1.17;;
53781;SDS011;39692;53.114;7.060;2023-01-19T09:10:12;3.30;;;1.42;;
53781;SDS011;39692;53.114;7.060;2023-01-19T09:12:38;3.35;;;0.88;;
53781;SDS011;39692;53.114;7.060;2023-01-19T09:15:04;4.80;;;1.13;;
53781;SDS011;39692;53.114;7.060;2023-01-19T09:17:30;12.65;;;1.17;;
53781;SDS011;39692;53.114;7.060;2023-01-19T09:19:56;5.25;;;0.82;;
53781;SDS011;39692;53.114;7.060;2023-01-19T09:22:23;5.18;;;1.20;;
53781;SDS011;39692;53.114;7.060;2023-01-19T09:24:49;3.50;;;0.77;;
53781;SDS011;39692;53.114;7.060;2023-01-19T09:27:15;1.45;;;0.45;;
53781;SDS011;39692;53.114;7.060;2023-01-19T09:29:41;5.07;;;1.13;;
53781;SDS011;39692;53.114;7.060;2023-01-19T09:32:14;6.63;;;0.93;;
53781;SDS011;39692;53.114;7.060;2023-01-19T09:34:40;4.00;;;1.13;;
53781;SDS011;39692;53.114;7.060;2023-01-19T09:37:06;5.07;;;0.88;;
53781;SDS011;39692;53.114;7.060;2023-01-19T09:39:32;4.03;;;1.23;;
53781;SDS011;39692;53.114;7.060;2023-01-19T09:42:00;6.03;;;1.05;;
53781;SDS011;39692;53.114;7.060;2023-01-19T09:44:28;5.57;;;1.00;;
53781;SDS011;39692;53.114;7.060;2023-01-19T09:46:54;4.10;;;1.05;;
53781;SDS011;39692;53.114;7.060;2023-01-19T09:49:26;5.43;;;1.48;;
53781;SDS011;39692;53.114;7.060;2023-01-19T09:51:53;6.22;;;2.20;;
53781;SDS011;39692;53.114;7.060;2023-01-19T09:54:21;11.32;;;4.05;;
53781;SDS011;39692;53.114;7.060;2023-01-19T09:56:48;5.45;;;2.47;;
53781;SDS011;39692;53.114;7.060;2023-01-19T10:07:02;4.85;;;1.88;;
53781;SDS011;39692;53.114;7.060;2023-01-19T10:09:35;5.03;;;1.58;;
53781;SDS011;39692;53.114;7.060;2023-01-19T10:14:33;4.95;;;1.17;;
53781;SDS011;39692;53.114;7.060;2023-01-19T10:19:40;9.68;;;1.73;;
53781;SDS011;39692;53.114;7.060;2023-01-19T10:22:17;5.05;;;1.90;;
53781;SDS011;39692;53.114;7.060;2023-01-19T10:24:45;6.10;;;1.60;;
53781;SDS011;39692;53.114;7.060;2023-01-19T10:27:14;6.15;;;2.03;;
53781;SDS011;39692;53.114;7.060;2023-01-19T10:29:42;10.52;;;1.77;;
53781;SDS011;39692;53.114;7.060;2023-01-19T10:34:34;3.80;;;1.27;;
53781;SDS011;39692;53.114;7.060;2023-01-19T10:37:04;5.53;;;1.52;;
53781;SDS011;39692;53.114;7.060;2023-01-19T10:39:38;6.50;;;1.67;;
53781;SDS011;39692;53.114;7.060;2023-01-19T10:42:08;7.32;;;2.10;;
53781;SDS011;39692;53.114;7.060;2023-01-19T10:44:35;9.57;;;2.67;;
53781;SDS011;39692;53.114;7.060;2023-01-19T10:47:01;8.93;;;2.10;;
53781;SDS011;39692;53.114;7.060;2023-01-19T10:49:36;11.77;;;2.38;;
53781;SDS011;39692;53.114;7.060;2023-01-19T10:52:06;9.03;;;2.33;;
53781;SDS011;39692;53.114;7.060;2023-01-19T10:54:34;9.40;;;2.05;;
53781;SDS011;39692;53.114;7.060;2023-01-19T10:57:02;4.20;;;1.52;;
53781;SDS011;39692;53.114;7.060;2023-01-19T10:59:35;7.68;;;2.38;;
53781;SDS011;39692;53.114;7.060;2023-01-19T11:04:37;12.90;;;3.15;;
53781;SDS011;39692;53.114;7.060;2023-01-19T11:07:13;7.22;;;2.38;;
53781;SDS011;39692;53.114;7.060;2023-01-19T11:09:40;8.13;;;2.88;;
53781;SDS011;39692;53.114;7.060;2023-01-19T11:12:13;7.78;;;2.38;;
53781;SDS011;39692;53.114;7.060;2023-01-19T11:14:40;12.83;;;3.47;;
53781;SDS011;39692;53.114;7.060;2023-01-19T11:17:09;7.70;;;2.88;;
53781;SDS011;39692;53.114;7.060;2023-01-19T11:19:40;8.25;;;2.83;;
53781;SDS011;39692;53.114;7.060;2023-01-19T11:22:07;7.45;;;2.80;;
53781;SDS011;39692;53.114;7.060;2023-01-19T11:24:36;9.10;;;2.25;;
53781;SDS011;39692;53.114;7.060;2023-01-19T11:27:02;6.25;;;2.38;;
53781;SDS011;39692;53.114;7.060;2023-01-19T11:29:28;6.70;;;2.33;;
53781;SDS011;39692;53.114;7.060;2023-01-19T11:31:55;7.45;;;2.47;;
53781;SDS011;39692;53.114;7.060;2023-01-19T11:34:34;7.25;;;2.00;;
53781;SDS011;39692;53.114;7.060;2023-01-19T11:37:03;9.75;;;2.33;;
53781;SDS011;39692;53.114;7.060;2023-01-19T11:39:30;7.47;;;2.40;;
53781;SDS011;39692;53.114;7.060;2023-01-19T11:41:58;7.32;;;2.50;;
53781;SDS011;39692;53.114;7.060;2023-01-19T11:44:32;6.47;;;1.90;;
53781;SDS011;39692;53.114;7.060;2023-01-19T11:46:59;6.30;;;2.10;;
53781;SDS011;39692;53.114;7.060;2023-01-19T11:49:28;10.23;;;2.65;;
53781;SDS011;39692;53.114;7.060;2023-01-19T11:52:21;6.80;;;2.15;;
53781;SDS011;39692;53.114;7.060;2023-01-19T11:55:00;7.18;;;2.30;;
53781;SDS011;39692;53.114;7.060;2023-01-19T11:57:28;4.13;;;1.83;;
53781;SDS011;39692;53.114;7.060;2023-01-19T11:59:54;7.10;;;2.13;;
53781;SDS011;39692;53.114;7.060;2023-01-19T12:02:24;3.90;;;1.60;;
53781;SDS011;39692;53.114;7.060;2023-01-19T12:04:52;6.68;;;2.15;;
53781;SDS011;39692;53.114;7.060;2023-01-19T12:07:21;5.95;;;1.65;;
53781;SDS011;39692;53.114;7.060;2023-01-19T12:09:50;6.10;;;1.60;;
53781;SDS011;39692;53.114;7.060;2023-01-19T12:14:58;5.80;;;1.85;;
53781;SDS011;39692;53.114;7.060;2023-01-19T12:17:29;9.02;;;2.00;;
53781;SDS011;39692;53.114;7.060;2023-01-19T12:20:02;6.35;;;1.60;;
53781;SDS011;39692;53.114;7.060;2023-01-19T12:22:30;3.70;;;1.52;;
53781;SDS011;39692;53.114;7.060;2023-01-19T12:25:13;6.55;;;1.45;;
53781;SDS011;39692;53.114;7.060;2023-01-19T12:27:43;8.70;;;1.73;;
53781;SDS011;39692;53.114;7.060;2023-01-19T12:30:20;8.23;;;2.20;;
53781;SDS011;39692;53.114;7.060;2023-01-19T12:32:47;4.43;;;1.83;;
53781;SDS011;39692;53.114;7.060;2023-01-19T12:38:00;6.55;;;1.90;;
53781;SDS011;39692;53.114;7.060;2023-01-19T12:40:26;7.30;;;1.85;;
53781;SDS011;39692;53.114;7.060;2023-01-19T12:43:00;4.63;;;1.50;;
53781;SDS011;39692;53.114;7.060;2023-01-19T12:45:32;4.97;;;1.40;;
53781;SDS011;39692;53.114;7.060;2023-01-19T12:47:58;5.53;;;1.25;;
53781;SDS011;39692;53.114;7.060;2023-01-19T12:50:26;5.78;;;1.52;;
53781;SDS011;39692;53.114;7.060;2023-01-19T12:52:56;5.90;;;1.40;;
53781;SDS011;39692;53.114;7.060;2023-01-19T12:55:24;4.95;;;1.25;;
53781;SDS011;39692;53.114;7.060;2023-01-19T12:57:55;3.45;;;1.25;;
53781;SDS011;39692;53.114;7.060;2023-01-19T13:02:52;5.90;;;1.23;;
53781;SDS011;39692;53.114;7.060;2023-01-19T13:13:21;7.22;;;1.20;;
53781;SDS011;39692;53.114;7.060;2023-01-19T13:15:48;4.85;;;1.23;;
53781;SDS011;39692;53.114;7.060;2023-01-19T13:20:49;3.65;;;1.00;;
53781;SDS011;39692;53.114;7.060;2023-01-19T13:23:17;3.50;;;0.95;;
53781;SDS011;39692;53.114;7.060;2023-01-19T13:25:46;3.40;;;0.73;;
53781;SDS011;39692;53.114;7.060;2023-01-19T13:28:12;1.17;;;0.57;;
53781;SDS011;39692;53.114;7.060;2023-01-19T13:30:46;2.05;;;0.60;;
53781;SDS011;39692;53.114;7.060;2023-01-19T13:33:18;3.95;;;0.75;;
53781;SDS011;39692;53.114;7.060;2023-01-19T13:35:50;1.95;;;0.57;;
53781;SDS011;39692;53.114;7.060;2023-01-19T13:38:16;2.80;;;0.80;;
53781;SDS011;39692;53.114;7.060;2023-01-19T13:40:43;2.45;;;0.60;;
53781;SDS011;39692;53.114;7.060;2023-01-19T13:43:17;3.50;;;0.68;;
53781;SDS011;39692;53.114;7.060;2023-01-19T13:48:13;4.07;;;0.65;;
53781;SDS011;39692;53.114;7.060;2023-01-19T13:50:41;2.17;;;0.57;;
53781;SDS011;39692;53.114;7.060;2023-01-19T13:53:16;1.35;;;0.50;;
53781;SDS011;39692;53.114;7.060;2023-01-19T13:55:43;2.58;;;0.60;;
53781;SDS011;39692;53.114;7.060;2023-01-19T13:58:18;1.42;;;0.60;;
53781;SDS011;39692;53.114;7.060;2023-01-19T14:00:45;0.85;;;0.30;;
53781;SDS011;39692;53.114;7.060;2023-01-19T14:03:15;5.57;;;0.90;;
53781;SDS011;39692;53.114;7.060;2023-01-19T14:05:47;1.50;;;0.65;;
53781;SDS011;39692;53.114;7.060;2023-01-19T14:08:14;3.15;;;0.77;;
53781;SDS011;39692;53.114;7.060;2023-01-19T14:15:43;2.50;;;0.60;;
53781;SDS011;39692;53.114;7.060;2023-01-19T14:18:19;5.80;;;0.80;;
53781;SDS011;39692;53.114;7.060;2023-01-19T14:21:01;2.05;;;0.60;;
53781;SDS011;39692;53.114;7.060;2023-01-19T14:32:40;3.70;;;0.85;;
53781;SDS011;39692;53.114;7.060;2023-01-19T14:34:31;2.70;;;0.85;;
53781;SDS011;39692;53.114;7.060;2023-01-19T14:36:58;6.43;;;1.17;;
53781;SDS011;39692;53.114;7.060;2023-01-19T14:39:26;3.22;;;0.85;;
53781;SDS011;39692;53.114;7.060;2023-01-19T14:41:52;1.70;;;0.63;;
53781;SDS011;39692;53.114;7.060;2023-01-19T14:44:25;3.30;;;0.68;;
53781;SDS011;39692;53.114;7.060;2023-01-19T14:46:53;7.90;;;0.80;;
53781;SDS011;39692;53.114;7.060;2023-01-19T14:49:27;7.75;;;0.80;;
53781;SDS011;39692;53.114;7.060;2023-01-19T14:51:54;5.45;;;1.35;;
53781;SDS011;39692;53.114;7.060;2023-01-19T14:54:26;2.03;;;0.82;;
53781;SDS011;39692;53.114;7.060;2023-01-19T14:56:53;5.90;;;0.68;;
53781;SDS011;39692;53.114;7.060;2023-01-19T14:59:19;4.13;;;0.50;;
53781;SDS011;39692;53.114;7.060;2023-01-19T15:01:45;1.85;;;0.55;;
53781;SDS011;39692;53.114;7.060;2023-01-19T15:04:11;2.72;;;0.63;;
53781;SDS011;39692;53.114;7.060;2023-01-19T15:06:40;3.38;;;0.88;;
53781;SDS011;39692;53.114;7.060;2023-01-19T15:09:11;3.60;;;0.57;;
53781;SDS011;39692;53.114;7.060;2023-01-19T15:11:37;4.50;;;1.88;;
53781;SDS011;39692;53.114;7.060;2023-01-19T15:14:04;2.72;;;0.65;;
53781;SDS011;39692;53.114;7.060;2023-01-19T15:16:31;4.07;;;0.80;;
53781;SDS011;39692;53.114;7.060;2023-01-19T15:18:58;4.35;;;0.60;;
53781;SDS011;39692;53.114;7.060;2023-01-19T15:21:25;4.65;;;0.98;;
53781;SDS011;39692;53.114;7.060;2023-01-19T15:23:51;3.72;;;0.68;;
53781;SDS011;39692;53.114;7.060;2023-01-19T15:26:22;2.72;;;1.08;;
53781;SDS011;39692;53.114;7.060;2023-01-19T15:28:49;4.55;;;1.08;;
53781;SDS011;39692;53.114;7.060;2023-01-19T15:31:16;6.05;;;0.88;;
53781;SDS011;39692;53.114;7.060;2023-01-19T15:33:42;8.57;;;1.00;;
53781;SDS011;39692;53.114;7.060;2023-01-19T15:36:26;3.63;;;1.13;;
53781;SDS011;39692;53.114;7.060;2023-01-19T15:38:52;4.28;;;0.90;;
53781;SDS011;39692;53.114;7.060;2023-01-19T15:41:24;5.00;;;1.65;;
53781;SDS011;39692;53.114;7.060;2023-01-19T15:43:51;4.32;;;1.05;;
53781;SDS011;39692;53.114;7.060;2023-01-19T15:46:18;4.45;;;1.20;;
53781;SDS011;39692;53.114;7.060;2023-01-19T15:48:45;8.70;;;2.42;;
53781;SDS011;39692;53.114;7.060;2023-01-19T15:51:11;4.50;;;1.30;;
53781;SDS011;39692;53.114;7.060;2023-01-19T15:53:38;2.58;;;1.27;;
53781;SDS011;39692;53.114;7.060;2023-01-19T15:56:04;5.45;;;1.67;;
53781;SDS011;39692;53.114;7.060;2023-01-19T15:58:31;4.40;;;1.48;;
53781;SDS011;39692;53.114;7.060;2023-01-19T16:00:57;4.90;;;1.08;;